Favola — IBFH — position and weather

sailwx.info

Track history (hours):
 
Tides and Currents Weather Stations Pressure Air Temp Water Temp Dewpoint Dewpoint Depression Visibility Wind Speed Wind Dir Waves Ship Positions

Favola

Last reported at 2014-Oct-12 16:32 UTC. Time now 2014-Oct-24 20:41 UTC.
Position N 35°41' E 015°03'.
Warning: this ship's position is 12 days out of date.

Length 180 m; draft 10 m.

Type: Ship (hazmat cat A). MMSI: 247069800.

Date/timePositionNaut miles runAvg speedWind from/ knotsBaromVisibWave heightAir tempDewpointWater temp
2014-Oct-12 16:32N 35°41' E 015°03'1313.1
2014-Oct-12 15:33N 35°43' E 014°48'1311.1
2014-Oct-12 14:22N 35°49' E 014°33'0 0.0
2014-Oct-12 08:31N 35°49' E 014°33'0 0.0
2014-Oct-12 06:13N 35°49' E 014°33'0 0.0
2014-Oct-12 04:10N 35°49' E 014°33'0 0.0
2014-Oct-12 03:31N 35°49' E 014°33'0 0.0
2014-Oct-12 01:22N 35°49' E 014°33'0 0.0
2014-Oct-11 13:07N 35°49' E 014°33'0 0.0
2014-Oct-11 12:19N 35°49' E 014°33'0 0.0
2014-Oct-11 11:10N 35°49' E 014°33'0 0.0
2014-Oct-11 09:33N 35°49' E 014°33'0 0.0
2014-Oct-11 07:33N 35°49' E 014°33'0 0.0
2014-Oct-11 06:24N 35°49' E 014°33'0 0.0
2014-Oct-11 04:30N 35°49' E 014°33'0 0.0
2014-Oct-10 17:21N 35°49' E 014°33'64 1.8
2014-Oct-09 06:07N 36°45' E 013°54'5 8.5
2014-Oct-09 05:33N 36°48' E 013°50'8 8.1
2014-Oct-09 04:33N 36°55' E 013°45'8 8.3
2014-Oct-09 03:33N 37°01' E 013°38'190 8.2
2014-Oct-08 04:18N 38°23' E 010°02'6 7.8
2014-Oct-08 03:33N 38°25' E 009°54'8 7.6
2014-Oct-08 02:33N 38°27' E 009°45'8 7.7
2014-Oct-08 01:33N 38°29' E 009°36'7 7.6
2014-Oct-08 00:34N 38°31' E 009°26'8 7.4
2014-Oct-07 23:33N 38°33' E 009°17'7 7.4
2014-Oct-07 22:33N 38°34' E 009°08'8 7.7
2014-Oct-07 21:33N 38°36' E 008°58'8 7.6
2014-Oct-07 20:32N 38°39' E 008°49'8 7.8
2014-Oct-07 19:33N 38°41' E 008°40'10 8.0
2014-Oct-07 18:16N 38°44' E 008°27'6 7.8
2014-Oct-07 17:30N 38°46' E 008°20'8 7.7
2014-Oct-07 16:30N 38°49' E 008°10'34 7.6
2014-Oct-07 12:06N 39°02' E 007°31'71 9.3
2014-Oct-07 04:29N 39°31' E 006°07'139 8.0
2014-Oct-06 11:15N 40°26' E 003°21'5 7.9
2014-Oct-06 10:33N 40°28' E 003°15'1010.2
2014-Oct-06 09:33N 40°32' E 003°02'1212.1
2014-Oct-06 08:33N 40°36' E 002°47'1212.3
2014-Oct-06 07:34N 40°40' E 002°32'1212.1
2014-Oct-06 06:33N 40°45' E 002°17'1010.2
2014-Oct-06 05:33N 40°49' E 002°05'8 8.2
2014-Oct-06 04:33N 40°51' E 001°54'8 8.1
2014-Oct-06 03:33N 40°54' E 001°44'8 8.0
2014-Oct-06 02:33N 40°57' E 001°34'19 1.0
2014-Oct-05 07:33N 41°05' E 001°12'0 0.0
2014-Oct-05 06:24N 41°05' E 001°12'0 0.0
2014-Oct-05 03:18N 41°05' E 001°12'0 0.0
2014-Oct-05 02:24N 41°05' E 001°12'0 0.0
2014-Oct-04 22:23N 41°05' E 001°12'0 0.0
2014-Oct-04 21:29N 41°05' E 001°12'0 0.0
2014-Oct-04 20:17N 41°05' E 001°12'0 0.0
2014-Oct-04 19:05N 41°05' E 001°12'0 0.0
2014-Oct-04 17:29N 41°05' E 001°12'0 0.0
2014-Oct-04 16:32N 41°05' E 001°12'0 0.1
2014-Oct-04 15:33N 41°05' E 001°12'3 0.6
2014-Oct-04 10:28N 41°04' E 001°16'0 0.0
2014-Oct-04 09:28N 41°04' E 001°16'0 0.0
2014-Oct-04 08:28N 41°04' E 001°16'0 0.0
2014-Oct-04 07:28N 41°04' E 001°16'0 0.0
2014-Oct-04 05:10N 41°04' E 001°16'0 0.0
2014-Oct-04 04:31N 41°04' E 001°16'0 0.0
2014-Oct-04 03:28N 41°04' E 001°16'0 0.0
2014-Oct-04 02:28N 41°04' E 001°16'0 0.0
2014-Oct-03 20:28N 41°04' E 001°16'0 0.0
2014-Oct-03 11:10N 41°04' E 001°16'0 0.1
2014-Oct-03 10:16N 41°04' E 001°16'0 0.1
2014-Oct-03 09:31N 41°04' E 001°16'0 0.0
2014-Oct-03 08:28N 41°04' E 001°16'0 0.0
2014-Oct-03 03:28N 41°04' E 001°16'0 0.0
2014-Oct-02 17:27N 41°04' E 001°16'  
Track history (hours):
 
Tides and Currents Weather Stations Pressure Air Temp Water Temp Dewpoint Dewpoint Depression Visibility Wind Speed Wind Dir Waves Ship Positions

Favola

Last reported at 2014-Oct-12 16:32 UTC. Time now 2014-Oct-24 20:41 UTC.
Position N 35°41' E 015°03'.
Warning: this ship's position is 12 days out of date.

Length 180 m; draft 10 m.

Type: Ship (hazmat cat A). MMSI: 247069800.

Date/timePositionNaut miles runAvg speedWind from/ knotsBaromVisibWave heightAir tempDewpointWater temp
2014-Oct-12 16:32N 35°41' E 015°03'1313.1
2014-Oct-12 15:33N 35°43' E 014°48'1311.1
2014-Oct-12 14:22N 35°49' E 014°33'0 0.0
2014-Oct-12 08:31N 35°49' E 014°33'0 0.0
2014-Oct-12 06:13N 35°49' E 014°33'0 0.0
2014-Oct-12 04:10N 35°49' E 014°33'0 0.0
2014-Oct-12 03:31N 35°49' E 014°33'0 0.0
2014-Oct-12 01:22N 35°49' E 014°33'0 0.0
2014-Oct-11 13:07N 35°49' E 014°33'0 0.0
2014-Oct-11 12:19N 35°49' E 014°33'0 0.0
2014-Oct-11 11:10N 35°49' E 014°33'0 0.0
2014-Oct-11 09:33N 35°49' E 014°33'0 0.0
2014-Oct-11 07:33N 35°49' E 014°33'0 0.0
2014-Oct-11 06:24N 35°49' E 014°33'0 0.0
2014-Oct-11 04:30N 35°49' E 014°33'0 0.0
2014-Oct-10 17:21N 35°49' E 014°33'64 1.8
2014-Oct-09 06:07N 36°45' E 013°54'5 8.5
2014-Oct-09 05:33N 36°48' E 013°50'8 8.1
2014-Oct-09 04:33N 36°55' E 013°45'8 8.3
2014-Oct-09 03:33N 37°01' E 013°38'190 8.2
2014-Oct-08 04:18N 38°23' E 010°02'6 7.8
2014-Oct-08 03:33N 38°25' E 009°54'8 7.6
2014-Oct-08 02:33N 38°27' E 009°45'8 7.7
2014-Oct-08 01:33N 38°29' E 009°36'7 7.6
2014-Oct-08 00:34N 38°31' E 009°26'8 7.4
2014-Oct-07 23:33N 38°33' E 009°17'7 7.4
2014-Oct-07 22:33N 38°34' E 009°08'8 7.7
2014-Oct-07 21:33N 38°36' E 008°58'8 7.6
2014-Oct-07 20:32N 38°39' E 008°49'8 7.8
2014-Oct-07 19:33N 38°41' E 008°40'10 8.0
2014-Oct-07 18:16N 38°44' E 008°27'6 7.8
2014-Oct-07 17:30N 38°46' E 008°20'8 7.7
2014-Oct-07 16:30N 38°49' E 008°10'34 7.6
2014-Oct-07 12:06N 39°02' E 007°31'71 9.3
2014-Oct-07 04:29N 39°31' E 006°07'139 8.0
2014-Oct-06 11:15N 40°26' E 003°21'5 7.9
2014-Oct-06 10:33N 40°28' E 003°15'1010.2
2014-Oct-06 09:33N 40°32' E 003°02'1212.1
2014-Oct-06 08:33N 40°36' E 002°47'1212.3
2014-Oct-06 07:34N 40°40' E 002°32'1212.1
2014-Oct-06 06:33N 40°45' E 002°17'1010.2
2014-Oct-06 05:33N 40°49' E 002°05'8 8.2
2014-Oct-06 04:33N 40°51' E 001°54'8 8.1
2014-Oct-06 03:33N 40°54' E 001°44'8 8.0
2014-Oct-06 02:33N 40°57' E 001°34'19 1.0
2014-Oct-05 07:33N 41°05' E 001°12'0 0.0
2014-Oct-05 06:24N 41°05' E 001°12'0 0.0
2014-Oct-05 03:18N 41°05' E 001°12'0 0.0
2014-Oct-05 02:24N 41°05' E 001°12'0 0.0
2014-Oct-04 22:23N 41°05' E 001°12'0 0.0
2014-Oct-04 21:29N 41°05' E 001°12'0 0.0
2014-Oct-04 20:17N 41°05' E 001°12'0 0.0
2014-Oct-04 19:05N 41°05' E 001°12'0 0.0
2014-Oct-04 17:29N 41°05' E 001°12'0 0.0
2014-Oct-04 16:32N 41°05' E 001°12'0 0.1
2014-Oct-04 15:33N 41°05' E 001°12'3 0.6
2014-Oct-04 10:28N 41°04' E 001°16'0 0.0
2014-Oct-04 09:28N 41°04' E 001°16'0 0.0
2014-Oct-04 08:28N 41°04' E 001°16'0 0.0
2014-Oct-04 07:28N 41°04' E 001°16'0 0.0
2014-Oct-04 05:10N 41°04' E 001°16'0 0.0
2014-Oct-04 04:31N 41°04' E 001°16'0 0.0
2014-Oct-04 03:28N 41°04' E 001°16'0 0.0
2014-Oct-04 02:28N 41°04' E 001°16'0 0.0
2014-Oct-03 20:28N 41°04' E 001°16'0 0.0
2014-Oct-03 11:10N 41°04' E 001°16'0 0.1
2014-Oct-03 10:16N 41°04' E 001°16'0 0.1
2014-Oct-03 09:31N 41°04' E 001°16'0 0.0
2014-Oct-03 08:28N 41°04' E 001°16'0 0.0
2014-Oct-03 03:28N 41°04' E 001°16'0 0.0
2014-Oct-02 17:27N 41°04' E 001°16'  

Dump ship's entire track history